首页
METAR-TAF:

METAR-TAF

机场 :

喬治·布什洲際機場

休斯敦, 得克萨斯州, 美国

纬度: 29-59-33N, 经度: 095-21-50W, 海拔: 29米

当前天气观测

该预报发布于24分钟前的19:53 UTC
风速10节,风向北转西北,有时为17节阵风
温度 11°C
湿度 30%
气压 1029 hPa
能見度: 16.1公里
少量云层高于25000英尺

METAR: KIAH 141953Z 34010G17KT 10SM FEW250 11/M06 A3039 RMK AO2 SLP290 T01061061

时间: 14:17 (20:17 UTC)

预报

该预报发布于2小时和57分钟前的17:20 UTC
预报有效从14日的 18点(UTC)到 15日的 24点(UTC)
风速12节,风向西北
能見度: 10公里
天空无云
从 15日的 0000点(UTC)
风速4节,风向西北
能見度: 10公里
天空无云
从 15日的 1800点(UTC)
风速6节,风向西
能見度: 10公里
天空无云

TAF: KIAH 141720Z 1418/1524 32012KT P6SM SKC FM150000 31004KT P6SM SKC FM151800 28006KT P6SM SKC

超过4000个机场的气象观测和天气预报(METAR&TAF报告)。

可查询的气象台以黄色和红色小点在地图上表示。

将鼠标移到小点上方,可查看气象台名称。

然后点击查看天气观测和预报。

如需切换地图:点击带黑十字的绿色按钮放大地图;点击带横线的绿色按钮缩小地图;或者点击绿色箭头查看邻近地区的地图。


METAR-TAF: